sensor_id;sensor_type;location;lat;lon;timestamp;P1;durP1;ratioP1;P2;durP2;ratioP2
21697;SDS011;11010;49.548;11.926;2023-02-28T00:01:12;7.57;;;2.17;;
21697;SDS011;11010;49.548;11.926;2023-02-28T00:03:40;8.33;;;2.30;;
21697;SDS011;11010;49.548;11.926;2023-02-28T00:06:08;8.57;;;1.87;;
21697;SDS011;11010;49.548;11.926;2023-02-28T00:08:36;8.13;;;2.20;;
21697;SDS011;11010;49.548;11.926;2023-02-28T00:11:05;7.73;;;2.00;;
21697;SDS011;11010;49.548;11.926;2023-02-28T00:13:35;8.40;;;2.30;;
21697;SDS011;11010;49.548;11.926;2023-02-28T00:16:09;7.07;;;2.10;;
21697;SDS011;11010;49.548;11.926;2023-02-28T00:18:39;7.83;;;2.07;;
21697;SDS011;11010;49.548;11.926;2023-02-28T00:21:07;7.33;;;2.00;;
21697;SDS011;11010;49.548;11.926;2023-02-28T00:23:35;7.57;;;2.07;;
21697;SDS011;11010;49.548;11.926;2023-02-28T00:26:03;7.33;;;2.10;;
21697;SDS011;11010;49.548;11.926;2023-02-28T00:28:30;8.43;;;2.23;;
21697;SDS011;11010;49.548;11.926;2023-02-28T00:30:58;9.47;;;2.63;;
21697;SDS011;11010;49.548;11.926;2023-02-28T00:33:27;7.53;;;2.13;;
21697;SDS011;11010;49.548;11.926;2023-02-28T00:36:02;8.33;;;2.33;;
21697;SDS011;11010;49.548;11.926;2023-02-28T00:38:30;7.37;;;2.17;;
21697;SDS011;11010;49.548;11.926;2023-02-28T00:40:59;7.90;;;2.17;;
21697;SDS011;11010;49.548;11.926;2023-02-28T00:43:32;7.73;;;2.10;;
21697;SDS011;11010;49.548;11.926;2023-02-28T00:46:03;7.73;;;2.33;;
21697;SDS011;11010;49.548;11.926;2023-02-28T00:48:31;8.73;;;2.10;;
21697;SDS011;11010;49.548;11.926;2023-02-28T00:50:59;8.57;;;2.13;;
21697;SDS011;11010;49.548;11.926;2023-02-28T00:53:26;9.50;;;2.40;;
21697;SDS011;11010;49.548;11.926;2023-02-28T00:55:56;7.70;;;2.17;;
21697;SDS011;11010;49.548;11.926;2023-02-28T00:58:24;9.80;;;2.43;;
21697;SDS011;11010;49.548;11.926;2023-02-28T01:00:52;9.43;;;2.40;;
21697;SDS011;11010;49.548;11.926;2023-02-28T01:03:20;8.93;;;2.40;;
21697;SDS011;11010;49.548;11.926;2023-02-28T01:05:49;9.23;;;2.20;;
21697;SDS011;11010;49.548;11.926;2023-02-28T01:08:16;7.83;;;2.23;;
21697;SDS011;11010;49.548;11.926;2023-02-28T01:10:44;7.97;;;2.13;;
21697;SDS011;11010;49.548;11.926;2023-02-28T01:13:11;9.07;;;2.47;;
21697;SDS011;11010;49.548;11.926;2023-02-28T01:15:40;7.47;;;2.20;;
21697;SDS011;11010;49.548;11.926;2023-02-28T01:18:10;7.30;;;2.27;;
21697;SDS011;11010;49.548;11.926;2023-02-28T01:20:38;7.67;;;2.07;;
21697;SDS011;11010;49.548;11.926;2023-02-28T01:23:05;7.87;;;2.20;;
21697;SDS011;11010;49.548;11.926;2023-02-28T01:25:36;6.67;;;2.00;;
21697;SDS011;11010;49.548;11.926;2023-02-28T01:28:04;7.97;;;2.30;;
21697;SDS011;11010;49.548;11.926;2023-02-28T01:30:33;7.13;;;2.20;;
21697;SDS011;11010;49.548;11.926;2023-02-28T01:33:00;8.83;;;2.33;;
21697;SDS011;11010;49.548;11.926;2023-02-28T01:35:31;7.80;;;2.30;;
21697;SDS011;11010;49.548;11.926;2023-02-28T01:38:00;7.93;;;2.23;;
21697;SDS011;11010;49.548;11.926;2023-02-28T01:40:46;7.53;;;2.10;;
21697;SDS011;11010;49.548;11.926;2023-02-28T01:43:26;8.53;;;2.27;;
21697;SDS011;11010;49.548;11.926;2023-02-28T01:45:56;8.30;;;2.37;;
21697;SDS011;11010;49.548;11.926;2023-02-28T01:48:31;9.83;;;2.30;;
21697;SDS011;11010;49.548;11.926;2023-02-28T01:51:02;8.17;;;2.23;;
21697;SDS011;11010;49.548;11.926;2023-02-28T01:53:37;7.10;;;2.10;;
21697;SDS011;11010;49.548;11.926;2023-02-28T01:56:08;9.47;;;2.60;;
21697;SDS011;11010;49.548;11.926;2023-02-28T01:58:38;8.57;;;2.40;;
21697;SDS011;11010;49.548;11.926;2023-02-28T02:01:05;8.70;;;2.40;;
21697;SDS011;11010;49.548;11.926;2023-02-28T02:03:32;9.27;;;2.47;;
21697;SDS011;11010;49.548;11.926;2023-02-28T02:06:02;10.83;;;2.50;;
21697;SDS011;11010;49.548;11.926;2023-02-28T02:08:29;8.20;;;2.37;;
21697;SDS011;11010;49.548;11.926;2023-02-28T02:10:57;9.37;;;2.57;;
21697;SDS011;11010;49.548;11.926;2023-02-28T02:21:15;9.23;;;2.63;;
21697;SDS011;11010;49.548;11.926;2023-02-28T02:40:36;9.53;;;2.80;;
21697;SDS011;11010;49.548;11.926;2023-02-28T02:43:22;7.63;;;2.70;;
21697;SDS011;11010;49.548;11.926;2023-02-28T02:45:59;10.87;;;2.83;;
21697;SDS011;11010;49.548;11.926;2023-02-28T02:48:55;7.90;;;2.50;;
21697;SDS011;11010;49.548;11.926;2023-02-28T02:51:25;10.27;;;2.90;;
21697;SDS011;11010;49.548;11.926;2023-02-28T02:54:08;9.43;;;2.60;;
21697;SDS011;11010;49.548;11.926;2023-02-28T02:56:45;9.10;;;3.17;;
21697;SDS011;11010;49.548;11.926;2023-02-28T02:59:16;8.03;;;2.87;;
21697;SDS011;11010;49.548;11.926;2023-02-28T03:02:10;10.07;;;2.93;;
21697;SDS011;11010;49.548;11.926;2023-02-28T03:04:45;9.07;;;2.97;;
21697;SDS011;11010;49.548;11.926;2023-02-28T03:07:20;9.30;;;2.87;;
21697;SDS011;11010;49.548;11.926;2023-02-28T03:09:51;9.80;;;3.10;;
21697;SDS011;11010;49.548;11.926;2023-02-28T03:12:19;9.03;;;3.00;;
21697;SDS011;11010;49.548;11.926;2023-02-28T03:18:03;9.40;;;2.90;;
21697;SDS011;11010;49.548;11.926;2023-02-28T03:20:43;9.37;;;2.80;;
21697;SDS011;11010;49.548;11.926;2023-02-28T03:26:22;10.90;;;3.27;;
21697;SDS011;11010;49.548;11.926;2023-02-28T03:29:05;8.93;;;2.80;;
21697;SDS011;11010;49.548;11.926;2023-02-28T03:31:37;8.80;;;3.00;;
21697;SDS011;11010;49.548;11.926;2023-02-28T03:34:10;9.17;;;3.30;;
21697;SDS011;11010;49.548;11.926;2023-02-28T03:36:44;9.57;;;3.27;;
21697;SDS011;11010;49.548;11.926;2023-02-28T03:39:19;10.03;;;3.40;;
21697;SDS011;11010;49.548;11.926;2023-02-28T03:41:56;10.10;;;3.20;;
21697;SDS011;11010;49.548;11.926;2023-02-28T03:44:30;9.53;;;2.90;;
21697;SDS011;11010;49.548;11.926;2023-02-28T03:47:06;9.40;;;3.27;;
21697;SDS011;11010;49.548;11.926;2023-02-28T03:49:54;11.03;;;3.50;;
21697;SDS011;11010;49.548;11.926;2023-02-28T03:52:24;11.33;;;3.27;;
21697;SDS011;11010;49.548;11.926;2023-02-28T03:54:56;9.80;;;3.10;;
21697;SDS011;11010;49.548;11.926;2023-02-28T04:00:04;9.63;;;3.33;;
21697;SDS011;11010;49.548;11.926;2023-02-28T04:02:40;11.33;;;3.73;;
21697;SDS011;11010;49.548;11.926;2023-02-28T04:05:07;9.97;;;3.60;;
21697;SDS011;11010;49.548;11.926;2023-02-28T04:07:35;11.47;;;2.90;;
21697;SDS011;11010;49.548;11.926;2023-02-28T04:10:03;10.97;;;3.60;;
21697;SDS011;11010;49.548;11.926;2023-02-28T04:12:31;9.93;;;3.77;;
21697;SDS011;11010;49.548;11.926;2023-02-28T04:14:58;11.40;;;3.37;;
21697;SDS011;11010;49.548;11.926;2023-02-28T04:17:25;8.93;;;3.13;;
21697;SDS011;11010;49.548;11.926;2023-02-28T04:19:52;10.10;;;3.67;;
21697;SDS011;11010;49.548;11.926;2023-02-28T04:22:23;10.20;;;3.23;;
21697;SDS011;11010;49.548;11.926;2023-02-28T04:24:53;9.93;;;3.40;;
21697;SDS011;11010;49.548;11.926;2023-02-28T04:27:21;10.40;;;3.30;;
21697;SDS011;11010;49.548;11.926;2023-02-28T04:29:48;10.27;;;3.30;;
21697;SDS011;11010;49.548;11.926;2023-02-28T04:32:15;10.63;;;3.43;;
21697;SDS011;11010;49.548;11.926;2023-02-28T04:34:42;11.63;;;3.17;;
21697;SDS011;11010;49.548;11.926;2023-02-28T04:37:09;9.20;;;3.03;;
21697;SDS011;11010;49.548;11.926;2023-02-28T04:43:10;10.33;;;3.40;;
21697;SDS011;11010;49.548;11.926;2023-02-28T04:45:37;9.90;;;3.30;;
21697;SDS011;11010;49.548;11.926;2023-02-28T04:48:05;10.93;;;3.00;;
21697;SDS011;11010;49.548;11.926;2023-02-28T04:50:32;11.00;;;3.47;;
21697;SDS011;11010;49.548;11.926;2023-02-28T04:52:59;9.77;;;3.20;;
21697;SDS011;11010;49.548;11.926;2023-02-28T04:55:27;10.90;;;3.40;;
21697;SDS011;11010;49.548;11.926;2023-02-28T04:57:54;10.17;;;3.40;;
21697;SDS011;11010;49.548;11.926;2023-02-28T05:00:21;10.40;;;3.27;;
21697;SDS011;11010;49.548;11.926;2023-02-28T05:02:49;10.40;;;3.60;;
21697;SDS011;11010;49.548;11.926;2023-02-28T05:05:16;10.03;;;3.50;;
21697;SDS011;11010;49.548;11.926;2023-02-28T05:07:45;9.63;;;3.47;;
21697;SDS011;11010;49.548;11.926;2023-02-28T05:10:12;10.80;;;3.47;;
21697;SDS011;11010;49.548;11.926;2023-02-28T05:12:39;11.23;;;3.63;;
21697;SDS011;11010;49.548;11.926;2023-02-28T05:15:08;10.23;;;3.60;;
21697;SDS011;11010;49.548;11.926;2023-02-28T05:17:39;9.93;;;3.53;;
21697;SDS011;11010;49.548;11.926;2023-02-28T05:20:07;9.97;;;3.43;;
21697;SDS011;11010;49.548;11.926;2023-02-28T05:22:41;11.00;;;3.77;;
21697;SDS011;11010;49.548;11.926;2023-02-28T05:25:17;10.43;;;3.23;;
21697;SDS011;11010;49.548;11.926;2023-02-28T05:27:46;10.63;;;3.43;;
21697;SDS011;11010;49.548;11.926;2023-02-28T05:30:13;9.97;;;3.40;;
21697;SDS011;11010;49.548;11.926;2023-02-28T05:32:41;12.60;;;3.87;;
21697;SDS011;11010;49.548;11.926;2023-02-28T05:35:11;11.00;;;3.50;;
21697;SDS011;11010;49.548;11.926;2023-02-28T05:37:39;11.73;;;4.00;;
21697;SDS011;11010;49.548;11.926;2023-02-28T05:40:06;11.23;;;4.07;;
21697;SDS011;11010;49.548;11.926;2023-02-28T05:42:37;10.93;;;4.00;;
21697;SDS011;11010;49.548;11.926;2023-02-28T05:45:05;10.83;;;4.10;;
21697;SDS011;11010;49.548;11.926;2023-02-28T05:47:33;12.60;;;3.80;;
21697;SDS011;11010;49.548;11.926;2023-02-28T05:50:02;11.50;;;4.10;;
21697;SDS011;11010;49.548;11.926;2023-02-28T05:52:30;9.63;;;3.50;;
21697;SDS011;11010;49.548;11.926;2023-02-28T05:54:57;10.23;;;3.67;;
21697;SDS011;11010;49.548;11.926;2023-02-28T05:57:25;10.63;;;3.73;;
21697;SDS011;11010;49.548;11.926;2023-02-28T05:59:52;12.40;;;3.63;;
21697;SDS011;11010;49.548;11.926;2023-02-28T06:02:19;12.23;;;3.87;;
21697;SDS011;11010;49.548;11.926;2023-02-28T06:04:47;10.70;;;3.90;;
21697;SDS011;11010;49.548;11.926;2023-02-28T06:07:14;10.90;;;3.80;;
21697;SDS011;11010;49.548;11.926;2023-02-28T06:09:43;11.70;;;4.30;;
21697;SDS011;11010;49.548;11.926;2023-02-28T06:12:11;12.80;;;4.20;;
21697;SDS011;11010;49.548;11.926;2023-02-28T06:14:38;10.83;;;3.90;;
21697;SDS011;11010;49.548;11.926;2023-02-28T06:17:05;11.17;;;3.93;;
21697;SDS011;11010;49.548;11.926;2023-02-28T06:19:33;9.60;;;3.73;;
21697;SDS011;11010;49.548;11.926;2023-02-28T06:22:00;11.27;;;3.77;;
21697;SDS011;11010;49.548;11.926;2023-02-28T06:24:28;11.27;;;4.07;;
21697;SDS011;11010;49.548;11.926;2023-02-28T06:26:55;11.73;;;3.73;;
21697;SDS011;11010;49.548;11.926;2023-02-28T06:29:24;12.70;;;4.00;;
21697;SDS011;11010;49.548;11.926;2023-02-28T06:31:51;11.20;;;4.13;;
21697;SDS011;11010;49.548;11.926;2023-02-28T06:34:19;11.23;;;4.20;;
21697;SDS011;11010;49.548;11.926;2023-02-28T06:36:46;11.93;;;4.20;;
21697;SDS011;11010;49.548;11.926;2023-02-28T06:39:17;12.90;;;4.33;;
21697;SDS011;11010;49.548;11.926;2023-02-28T06:41:45;12.50;;;4.10;;
21697;SDS011;11010;49.548;11.926;2023-02-28T06:44:22;9.47;;;3.77;;
21697;SDS011;11010;49.548;11.926;2023-02-28T06:46:50;13.03;;;4.23;;
21697;SDS011;11010;49.548;11.926;2023-02-28T06:49:17;11.67;;;3.70;;
21697;SDS011;11010;49.548;11.926;2023-02-28T06:51:45;15.80;;;4.53;;
21697;SDS011;11010;49.548;11.926;2023-02-28T06:54:12;13.77;;;5.17;;
21697;SDS011;11010;49.548;11.926;2023-02-28T06:56:40;12.90;;;5.37;;
21697;SDS011;11010;49.548;11.926;2023-02-28T06:59:07;11.47;;;4.27;;
21697;SDS011;11010;49.548;11.926;2023-02-28T07:01:35;11.70;;;4.60;;
21697;SDS011;11010;49.548;11.926;2023-02-28T07:04:02;11.30;;;4.47;;
21697;SDS011;11010;49.548;11.926;2023-02-28T07:06:32;11.17;;;3.93;;
21697;SDS011;11010;49.548;11.926;2023-02-28T07:08:59;11.23;;;4.13;;
21697;SDS011;11010;49.548;11.926;2023-02-28T07:11:27;13.87;;;5.03;;
21697;SDS011;11010;49.548;11.926;2023-02-28T07:13:55;11.57;;;4.00;;
21697;SDS011;11010;49.548;11.926;2023-02-28T07:16:25;11.97;;;4.80;;
21697;SDS011;11010;49.548;11.926;2023-02-28T07:18:53;13.50;;;4.67;;
21697;SDS011;11010;49.548;11.926;2023-02-28T07:21:21;13.17;;;5.33;;
21697;SDS011;11010;49.548;11.926;2023-02-28T07:23:49;13.30;;;4.80;;
21697;SDS011;11010;49.548;11.926;2023-02-28T07:26:18;11.87;;;4.77;;
21697;SDS011;11010;49.548;11.926;2023-02-28T07:28:47;14.60;;;5.07;;
21697;SDS011;11010;49.548;11.926;2023-02-28T07:31:16;15.50;;;4.83;;
21697;SDS011;11010;49.548;11.926;2023-02-28T07:33:45;12.50;;;4.70;;
21697;SDS011;11010;49.548;11.926;2023-02-28T07:36:13;13.30;;;5.17;;
21697;SDS011;11010;49.548;11.926;2023-02-28T07:38:46;12.77;;;4.63;;
21697;SDS011;11010;49.548;11.926;2023-02-28T07:41:17;12.50;;;4.70;;
21697;SDS011;11010;49.548;11.926;2023-02-28T07:43:46;12.67;;;5.47;;
21697;SDS011;11010;49.548;11.926;2023-02-28T07:46:15;13.13;;;5.17;;
21697;SDS011;11010;49.548;11.926;2023-02-28T07:48:43;14.57;;;5.57;;
21697;SDS011;11010;49.548;11.926;2023-02-28T07:51:11;12.73;;;4.90;;
21697;SDS011;11010;49.548;11.926;2023-02-28T07:53:38;13.37;;;5.00;;
21697;SDS011;11010;49.548;11.926;2023-02-28T07:56:06;15.17;;;5.37;;
21697;SDS011;11010;49.548;11.926;2023-02-28T07:58:34;12.07;;;4.70;;
21697;SDS011;11010;49.548;11.926;2023-02-28T08:01:08;14.13;;;4.90;;
21697;SDS011;11010;49.548;11.926;2023-02-28T08:03:37;14.10;;;5.07;;
21697;SDS011;11010;49.548;11.926;2023-02-28T08:06:05;13.27;;;4.73;;
21697;SDS011;11010;49.548;11.926;2023-02-28T08:08:34;13.93;;;5.50;;
21697;SDS011;11010;49.548;11.926;2023-02-28T08:11:02;11.53;;;4.67;;
21697;SDS011;11010;49.548;11.926;2023-02-28T08:13:30;11.70;;;4.83;;
21697;SDS011;11010;49.548;11.926;2023-02-28T08:15:57;13.53;;;4.70;;
21697;SDS011;11010;49.548;11.926;2023-02-28T08:18:27;13.47;;;5.00;;
21697;SDS011;11010;49.548;11.926;2023-02-28T08:20:55;15.03;;;5.20;;
21697;SDS011;11010;49.548;11.926;2023-02-28T08:23:23;11.93;;;4.30;;
21697;SDS011;11010;49.548;11.926;2023-02-28T08:25:56;14.23;;;5.10;;
21697;SDS011;11010;49.548;11.926;2023-02-28T08:28:24;12.20;;;4.47;;
21697;SDS011;11010;49.548;11.926;2023-02-28T08:30:53;13.33;;;4.80;;
21697;SDS011;11010;49.548;11.926;2023-02-28T08:33:21;11.27;;;4.30;;
21697;SDS011;11010;49.548;11.926;2023-02-28T08:35:52;11.47;;;4.13;;
21697;SDS011;11010;49.548;11.926;2023-02-28T08:38:23;12.37;;;5.30;;
21697;SDS011;11010;49.548;11.926;2023-02-28T08:40:56;13.07;;;4.47;;
21697;SDS011;11010;49.548;11.926;2023-02-28T08:43:25;13.03;;;4.17;;
21697;SDS011;11010;49.548;11.926;2023-02-28T08:45:53;12.17;;;4.87;;
21697;SDS011;11010;49.548;11.926;2023-02-28T08:48:27;11.87;;;4.67;;
21697;SDS011;11010;49.548;11.926;2023-02-28T08:53:33;9.90;;;3.93;;
21697;SDS011;11010;49.548;11.926;2023-02-28T08:56:02;10.97;;;4.53;;
21697;SDS011;11010;49.548;11.926;2023-02-28T08:58:31;11.83;;;4.43;;
21697;SDS011;11010;49.548;11.926;2023-02-28T09:01:00;11.13;;;4.40;;
21697;SDS011;11010;49.548;11.926;2023-02-28T09:03:33;11.73;;;4.23;;
21697;SDS011;11010;49.548;11.926;2023-02-28T09:06:00;11.50;;;4.13;;
21697;SDS011;11010;49.548;11.926;2023-02-28T09:08:29;12.77;;;4.50;;
21697;SDS011;11010;49.548;11.926;2023-02-28T09:10:57;11.50;;;4.23;;
21697;SDS011;11010;49.548;11.926;2023-02-28T09:13:28;12.80;;;4.67;;
21697;SDS011;11010;49.548;11.926;2023-02-28T09:16:00;11.50;;;4.27;;
21697;SDS011;11010;49.548;11.926;2023-02-28T09:18:28;14.47;;;4.60;;
21697;SDS011;11010;49.548;11.926;2023-02-28T09:20:56;11.93;;;4.90;;
21697;SDS011;11010;49.548;11.926;2023-02-28T09:23:24;12.70;;;5.03;;
21697;SDS011;11010;49.548;11.926;2023-02-28T09:25:52;11.90;;;4.40;;
21697;SDS011;11010;49.548;11.926;2023-02-28T09:28:21;13.03;;;4.43;;
21697;SDS011;11010;49.548;11.926;2023-02-28T09:30:50;11.37;;;4.60;;
21697;SDS011;11010;49.548;11.926;2023-02-28T09:33:19;12.33;;;4.33;;
21697;SDS011;11010;49.548;11.926;2023-02-28T09:35:48;14.53;;;4.60;;
21697;SDS011;11010;49.548;11.926;2023-02-28T09:38:17;12.83;;;4.87;;
21697;SDS011;11010;49.548;11.926;2023-02-28T09:43:20;11.57;;;3.83;;
21697;SDS011;11010;49.548;11.926;2023-02-28T09:45:56;11.23;;;4.33;;
21697;SDS011;11010;49.548;11.926;2023-02-28T09:48:35;13.57;;;4.67;;
21697;SDS011;11010;49.548;11.926;2023-02-28T09:51:12;12.13;;;4.50;;
21697;SDS011;11010;49.548;11.926;2023-02-28T09:53:55;11.97;;;4.50;;
21697;SDS011;11010;49.548;11.926;2023-02-28T09:56:30;15.63;;;5.00;;
21697;SDS011;11010;49.548;11.926;2023-02-28T10:04:59;12.43;;;4.70;;
21697;SDS011;11010;49.548;11.926;2023-02-28T10:10:27;12.70;;;4.63;;
21697;SDS011;11010;49.548;11.926;2023-02-28T10:13:50;12.03;;;4.40;;
21697;SDS011;11010;49.548;11.926;2023-02-28T10:16:20;11.37;;;4.00;;
21697;SDS011;11010;49.548;11.926;2023-02-28T10:18:56;12.83;;;4.40;;
21697;SDS011;11010;49.548;11.926;2023-02-28T10:21:32;12.30;;;4.53;;
21697;SDS011;11010;49.548;11.926;2023-02-28T10:27:12;13.90;;;5.13;;
21697;SDS011;11010;49.548;11.926;2023-02-28T10:29:56;12.47;;;4.80;;
21697;SDS011;11010;49.548;11.926;2023-02-28T10:32:27;12.50;;;4.40;;
21697;SDS011;11010;49.548;11.926;2023-02-28T10:34:57;13.50;;;5.07;;
21697;SDS011;11010;49.548;11.926;2023-02-28T10:37:25;12.73;;;4.80;;
21697;SDS011;11010;49.548;11.926;2023-02-28T10:39:53;14.47;;;5.07;;
21697;SDS011;11010;49.548;11.926;2023-02-28T10:42:24;12.47;;;4.93;;
21697;SDS011;11010;49.548;11.926;2023-02-28T10:45:09;12.13;;;5.07;;
21697;SDS011;11010;49.548;11.926;2023-02-28T10:47:40;13.83;;;4.43;;
21697;SDS011;11010;49.548;11.926;2023-02-28T10:55:59;12.33;;;4.73;;
21697;SDS011;11010;49.548;11.926;2023-02-28T10:58:29;13.60;;;5.10;;
21697;SDS011;11010;49.548;11.926;2023-02-28T11:01:16;13.70;;;5.03;;
21697;SDS011;11010;49.548;11.926;2023-02-28T11:03:46;12.43;;;4.90;;
21697;SDS011;11010;49.548;11.926;2023-02-28T11:06:18;13.73;;;5.07;;
21697;SDS011;11010;49.548;11.926;2023-02-28T11:08:55;15.37;;;6.07;;
21697;SDS011;11010;49.548;11.926;2023-02-28T11:11:26;15.13;;;5.90;;
21697;SDS011;11010;49.548;11.926;2023-02-28T11:13:56;12.73;;;4.90;;
21697;SDS011;11010;49.548;11.926;2023-02-28T11:16:33;12.50;;;5.10;;
21697;SDS011;11010;49.548;11.926;2023-02-28T11:19:04;14.57;;;5.47;;
21697;SDS011;11010;49.548;11.926;2023-02-28T11:21:45;12.97;;;5.27;;
21697;SDS011;11010;49.548;11.926;2023-02-28T11:24:22;15.67;;;5.60;;
21697;SDS011;11010;49.548;11.926;2023-02-28T11:26:53;12.00;;;5.00;;
21697;SDS011;11010;49.548;11.926;2023-02-28T11:29:32;15.33;;;6.00;;
21697;SDS011;11010;49.548;11.926;2023-02-28T11:32:03;14.50;;;5.80;;
21697;SDS011;11010;49.548;11.926;2023-02-28T11:34:32;14.37;;;5.70;;
21697;SDS011;11010;49.548;11.926;2023-02-28T11:36:59;15.93;;;6.17;;
21697;SDS011;11010;49.548;11.926;2023-02-28T11:39:32;14.77;;;5.63;;
21697;SDS011;11010;49.548;11.926;2023-02-28T11:56:05;15.00;;;5.30;;
21697;SDS011;11010;49.548;11.926;2023-02-28T12:01:56;13.83;;;5.77;;
21697;SDS011;11010;49.548;11.926;2023-02-28T12:10:24;14.67;;;5.63;;
21697;SDS011;11010;49.548;11.926;2023-02-28T12:18:57;14.10;;;5.50;;
21697;SDS011;11010;49.548;11.926;2023-02-28T12:24:45;14.70;;;6.43;;
21697;SDS011;11010;49.548;11.926;2023-02-28T12:27:26;13.13;;;5.53;;
21697;SDS011;11010;49.548;11.926;2023-02-28T12:33:26;14.57;;;5.77;;
21697;SDS011;11010;49.548;11.926;2023-02-28T12:35:49;14.73;;;5.60;;
21697;SDS011;11010;49.548;11.926;2023-02-28T12:38:28;15.00;;;5.80;;
21697;SDS011;11010;49.548;11.926;2023-02-28T12:40:59;12.37;;;5.43;;
21697;SDS011;11010;49.548;11.926;2023-02-28T12:43:33;13.90;;;6.20;;
21697;SDS011;11010;49.548;11.926;2023-02-28T12:46:11;14.40;;;5.60;;
21697;SDS011;11010;49.548;11.926;2023-02-28T12:48:58;14.10;;;5.87;;
21697;SDS011;11010;49.548;11.926;2023-02-28T12:51:32;13.93;;;5.87;;
21697;SDS011;11010;49.548;11.926;2023-02-28T12:54:07;14.87;;;6.07;;
21697;SDS011;11010;49.548;11.926;2023-02-28T13:00:04;16.03;;;5.90;;
21697;SDS011;11010;49.548;11.926;2023-02-28T13:10:45;12.83;;;5.70;;
21697;SDS011;11010;49.548;11.926;2023-02-28T13:13:17;15.13;;;6.00;;
21697;SDS011;11010;49.548;11.926;2023-02-28T13:18:38;13.97;;;5.87;;
21697;SDS011;11010;49.548;11.926;2023-02-28T13:21:07;13.90;;;6.07;;
21697;SDS011;11010;49.548;11.926;2023-02-28T13:23:39;13.53;;;6.20;;
21697;SDS011;11010;49.548;11.926;2023-02-28T13:26:10;14.37;;;5.70;;
21697;SDS011;11010;49.548;11.926;2023-02-28T13:31:20;14.60;;;6.03;;
21697;SDS011;11010;49.548;11.926;2023-02-28T13:36:25;14.47;;;5.70;;
21697;SDS011;11010;49.548;11.926;2023-02-28T13:39:02;14.27;;;5.83;;
21697;SDS011;11010;49.548;11.926;2023-02-28T13:41:49;12.70;;;5.57;;
21697;SDS011;11010;49.548;11.926;2023-02-28T13:52:07;14.47;;;6.20;;
21697;SDS011;11010;49.548;11.926;2023-02-28T14:09:00;41.03;;;17.60;;
21697;SDS011;11010;49.548;11.926;2023-02-28T14:11:45;14.80;;;6.13;;
21697;SDS011;11010;49.548;11.926;2023-02-28T14:17:06;13.83;;;6.27;;
21697;SDS011;11010;49.548;11.926;2023-02-28T14:19:39;15.47;;;6.33;;
21697;SDS011;11010;49.548;11.926;2023-02-28T14:22:32;14.90;;;5.93;;
21697;SDS011;11010;49.548;11.926;2023-02-28T14:25:33;15.37;;;5.97;;
21697;SDS011;11010;49.548;11.926;2023-02-28T14:28:18;12.93;;;6.00;;
21697;SDS011;11010;49.548;11.926;2023-02-28T14:36:35;13.97;;;6.07;;
21697;SDS011;11010;49.548;11.926;2023-02-28T14:39:19;15.20;;;6.37;;
21697;SDS011;11010;49.548;11.926;2023-02-28T14:41:51;16.17;;;6.43;;
21697;SDS011;11010;49.548;11.926;2023-02-28T14:44:20;13.57;;;6.17;;
21697;SDS011;11010;49.548;11.926;2023-02-28T14:46:55;13.30;;;5.57;;
21697;SDS011;11010;49.548;11.926;2023-02-28T14:54:41;15.90;;;6.73;;
21697;SDS011;11010;49.548;11.926;2023-02-28T14:57:23;15.37;;;6.73;;
21697;SDS011;11010;49.548;11.926;2023-02-28T15:02:47;16.53;;;7.50;;
21697;SDS011;11010;49.548;11.926;2023-02-28T15:07:45;13.07;;;5.70;;
21697;SDS011;11010;49.548;11.926;2023-02-28T15:10:21;14.60;;;6.30;;
21697;SDS011;11010;49.548;11.926;2023-02-28T15:15:33;14.17;;;6.67;;
21697;SDS011;11010;49.548;11.926;2023-02-28T15:18:44;13.13;;;5.87;;
21697;SDS011;11010;49.548;11.926;2023-02-28T15:21:23;14.37;;;6.37;;
21697;SDS011;11010;49.548;11.926;2023-02-28T15:23:55;14.03;;;5.97;;
21697;SDS011;11010;49.548;11.926;2023-02-28T15:26:31;13.70;;;6.33;;
21697;SDS011;11010;49.548;11.926;2023-02-28T15:29:08;13.53;;;6.23;;
21697;SDS011;11010;49.548;11.926;2023-02-28T15:31:53;13.90;;;6.10;;
21697;SDS011;11010;49.548;11.926;2023-02-28T15:34:28;14.47;;;6.50;;
21697;SDS011;11010;49.548;11.926;2023-02-28T15:43:02;14.57;;;5.83;;
21697;SDS011;11010;49.548;11.926;2023-02-28T15:45:32;14.03;;;5.63;;
21697;SDS011;11010;49.548;11.926;2023-02-28T15:48:05;14.03;;;6.33;;
21697;SDS011;11010;49.548;11.926;2023-02-28T15:50:42;14.60;;;6.60;;
21697;SDS011;11010;49.548;11.926;2023-02-28T15:53:15;14.73;;;6.23;;
21697;SDS011;11010;49.548;11.926;2023-02-28T15:55:50;14.13;;;6.53;;
21697;SDS011;11010;49.548;11.926;2023-02-28T15:58:21;15.00;;;6.20;;
21697;SDS011;11010;49.548;11.926;2023-02-28T16:01:08;17.20;;;6.20;;
21697;SDS011;11010;49.548;11.926;2023-02-28T16:03:50;15.40;;;6.30;;
21697;SDS011;11010;49.548;11.926;2023-02-28T16:06:32;12.90;;;6.20;;
21697;SDS011;11010;49.548;11.926;2023-02-28T16:09:05;14.80;;;6.37;;
21697;SDS011;11010;49.548;11.926;2023-02-28T16:11:37;15.70;;;6.07;;
21697;SDS011;11010;49.548;11.926;2023-02-28T16:17:07;15.20;;;6.40;;
21697;SDS011;11010;49.548;11.926;2023-02-28T16:19:41;14.50;;;6.27;;
21697;SDS011;11010;49.548;11.926;2023-02-28T16:22:09;14.57;;;6.50;;
21697;SDS011;11010;49.548;11.926;2023-02-28T16:24:36;16.90;;;7.40;;
21697;SDS011;11010;49.548;11.926;2023-02-28T16:27:05;14.23;;;6.50;;
21697;SDS011;11010;49.548;11.926;2023-02-28T16:29:34;15.20;;;6.80;;
21697;SDS011;11010;49.548;11.926;2023-02-28T16:32:06;16.40;;;6.57;;
21697;SDS011;11010;49.548;11.926;2023-02-28T16:34:34;14.70;;;6.47;;
21697;SDS011;11010;49.548;11.926;2023-02-28T16:37:01;14.57;;;5.83;;
21697;SDS011;11010;49.548;11.926;2023-02-28T16:39:28;14.13;;;6.40;;
21697;SDS011;11010;49.548;11.926;2023-02-28T16:41:56;15.40;;;6.57;;
21697;SDS011;11010;49.548;11.926;2023-02-28T16:46:59;16.53;;;8.30;;
21697;SDS011;11010;49.548;11.926;2023-02-28T16:49:27;14.93;;;7.63;;
21697;SDS011;11010;49.548;11.926;2023-02-28T16:51:55;16.60;;;7.80;;
21697;SDS011;11010;49.548;11.926;2023-02-28T16:54:22;14.30;;;6.63;;
21697;SDS011;11010;49.548;11.926;2023-02-28T16:56:50;17.03;;;6.80;;
21697;SDS011;11010;49.548;11.926;2023-02-28T16:59:25;15.63;;;7.10;;
21697;SDS011;11010;49.548;11.926;2023-02-28T17:01:54;15.10;;;7.10;;
21697;SDS011;11010;49.548;11.926;2023-02-28T17:04:25;13.60;;;6.00;;
21697;SDS011;11010;49.548;11.926;2023-02-28T17:06:53;16.23;;;7.30;;
21697;SDS011;11010;49.548;11.926;2023-02-28T17:09:22;13.40;;;6.37;;
21697;SDS011;11010;49.548;11.926;2023-02-28T17:12:05;16.13;;;6.97;;
21697;SDS011;11010;49.548;11.926;2023-02-28T17:14:33;13.97;;;6.10;;
21697;SDS011;11010;49.548;11.926;2023-02-28T17:17:00;14.13;;;6.33;;
21697;SDS011;11010;49.548;11.926;2023-02-28T17:19:28;16.93;;;6.90;;
21697;SDS011;11010;49.548;11.926;2023-02-28T17:21:55;14.77;;;6.97;;
21697;SDS011;11010;49.548;11.926;2023-02-28T17:24:22;15.87;;;6.37;;
21697;SDS011;11010;49.548;11.926;2023-02-28T17:26:56;16.07;;;7.13;;
21697;SDS011;11010;49.548;11.926;2023-02-28T17:29:24;14.10;;;6.73;;
21697;SDS011;11010;49.548;11.926;2023-02-28T17:31:52;15.13;;;7.40;;
21697;SDS011;11010;49.548;11.926;2023-02-28T17:34:19;14.90;;;6.90;;
21697;SDS011;11010;49.548;11.926;2023-02-28T17:36:47;15.37;;;6.97;;
21697;SDS011;11010;49.548;11.926;2023-02-28T17:39:17;15.07;;;6.90;;
21697;SDS011;11010;49.548;11.926;2023-02-28T17:41:54;13.07;;;5.97;;